Time;durP1;ratioP1;P1;durP2;ratioP2;P2;SDS_P1;SDS_P2;PMS_P1;PMS_P2;Temp;Humidity;BMP_temperature;BMP_pressure;BME280_temperature;BME280_humidity;BME280_pressure;Samples;Min_cycle;Max_cycle;Signal;HPM_P1;HPM_P2
2022/06/19 00:04:48;;;;;;;7.10;3.63;;;18.50;30.00;;;;;;10508439;28;20229;-84
2022/06/19 00:10:10;;;;;;;6.15;3.92;;;18.40;32.40;;;;;;10494408;28;20210;-84
2022/06/19 00:15:32;;;;;;;5.38;4.05;;;18.30;39.20;;;;;;10522380;28;20393;-84
2022/06/19 00:20:53;;;;;;;6.45;4.38;;;18.30;42.90;;;;;;10493970;28;20230;-84
2022/06/19 00:26:15;;;;;;;6.82;4.35;;;18.20;41.00;;;;;;10545553;28;20191;-84
2022/06/19 00:31:37;;;;;;;5.50;4.00;;;18.10;53.70;;;;;;10563914;28;20274;-84
2022/06/19 00:37:01;;;;;;;5.97;4.40;;;18.00;63.40;;;;;;10549641;28;20210;-84
2022/06/19 00:42:24;;;;;;;9.50;5.25;;;17.90;76.10;;;;;;10549072;28;20298;-84
2022/06/19 00:47:46;;;;;;;8.27;4.78;;;17.90;85.70;;;;;;10563258;28;20221;-84
2022/06/19 00:53:19;;;;;;;9.55;4.53;;;17.80;95.40;;;;;;10541811;28;20226;-84
2022/06/19 00:58:46;;;;;;;5.88;4.22;;;17.80;96.00;;;;;;10516254;28;20250;-84
2022/06/19 01:04:19;;;;;;;5.25;4.18;;;17.80;95.80;;;;;;10506176;28;20203;-84
2022/06/19 01:09:40;;;;;;;7.82;4.40;;;17.80;96.10;;;;;;10519943;28;20196;-84
2022/06/19 01:15:06;;;;;;;6.90;3.72;;;17.80;95.80;;;;;;10505670;28;20548;-84
2022/06/19 01:20:29;;;;;;;6.93;4.10;;;17.80;98.70;;;;;;10505966;28;20300;-84
2022/06/19 01:25:52;;;;;;;3.75;3.42;;;17.70;99.90;;;;;;10525330;28;20273;-84
2022/06/19 01:31:19;;;;;;;4.68;3.70;;;17.80;98.80;;;;;;10561530;28;20201;-84
2022/06/19 01:36:41;;;;;;;4.20;3.42;;;17.80;99.90;;;;;;10547147;28;20198;-84
2022/06/19 01:42:03;;;;;;;4.32;3.53;;;17.70;99.90;;;;;;10547299;28;20222;-84
2022/06/19 01:47:27;;;;;;;11.07;4.70;;;17.60;99.90;;;;;;10532832;28;20198;-84
2022/06/19 01:52:56;;;;;;;9.00;5.28;;;17.60;99.90;;;;;;10517370;28;20213;-84
2022/06/19 01:58:21;;;;;;;6.68;4.88;;;17.50;99.90;;;;;;10518616;28;20410;-84
2022/06/19 02:03:52;;;;;;;7.80;4.85;;;17.30;99.90;;;;;;10518942;28;20221;-84
2022/06/19 02:09:17;;;;;;;7.30;5.03;;;17.20;99.90;;;;;;10504580;28;20282;-84
2022/06/19 02:14:38;;;;;;;6.70;4.97;;;17.10;99.90;;;;;;10518473;28;20205;-84
2022/06/19 02:20:00;;;;;;;7.22;4.43;;;17.10;99.90;;;;;;10505375;28;20382;-84
2022/06/19 02:25:21;;;;;;;6.40;4.72;;;17.10;99.90;;;;;;10513690;28;20198;-84
2022/06/19 02:30:44;;;;;;;6.18;4.45;;;16.90;99.90;;;;;;10554286;28;20198;-83
2022/06/19 02:36:42;;;;;;;5.93;3.85;;;17.00;99.90;;;;;;10554287;28;20450;-84
2022/06/19 02:42:08;;;;;;;6.45;4.30;;;16.90;99.90;;;;;;10553638;28;20222;-84
2022/06/19 02:47:32;;;;;;;7.55;4.53;;;16.90;99.90;;;;;;10539564;28;20199;-84
2022/06/19 02:52:54;;;;;;;6.03;4.45;;;16.90;99.90;;;;;;10536314;28;20286;-84
2022/06/19 02:58:19;;;;;;;5.78;4.50;;;16.90;99.90;;;;;;10489790;28;20260;-84
2022/06/19 03:03:41;;;;;;;9.98;5.55;;;16.90;99.90;;;;;;10510958;28;20219;-85
2022/06/19 03:09:02;;;;;;;5.95;4.60;;;17.00;99.90;;;;;;10510841;28;20269;-84
2022/06/19 03:14:24;;;;;;;10.73;5.68;;;17.00;99.90;;;;;;10506464;28;20201;-83
2022/06/19 03:19:47;;;;;;;8.98;4.85;;;17.10;99.90;;;;;;10502362;28;20283;-84
2022/06/19 03:25:09;;;;;;;9.68;6.18;;;17.10;99.90;;;;;;10497214;28;20199;-84
2022/06/19 03:30:31;;;;;;;9.02;5.35;;;17.10;99.90;;;;;;10496500;28;20200;-83
2022/06/19 03:35:52;;;;;;;7.70;5.40;;;17.20;99.90;;;;;;10468248;28;20210;-85
2022/06/19 03:41:14;;;;;;;6.07;4.70;;;17.20;99.90;;;;;;10484213;28;20289;-84
2022/06/19 03:46:37;;;;;;;7.38;4.50;;;17.20;99.90;;;;;;10481816;28;20498;-84
2022/06/19 03:51:58;;;;;;;6.28;4.88;;;17.20;99.90;;;;;;10489375;28;20293;-84
2022/06/19 03:57:20;;;;;;;5.55;4.68;;;17.20;99.90;;;;;;10469109;28;20203;-84
2022/06/19 04:02:44;;;;;;;8.40;4.95;;;17.30;99.90;;;;;;10521771;28;20231;-83
2022/06/19 04:08:08;;;;;;;8.05;5.47;;;17.30;99.90;;;;;;10529375;28;20553;-84
2022/06/19 04:13:31;;;;;;;8.50;6.28;;;17.30;99.90;;;;;;10508173;28;20219;-84
2022/06/19 04:18:55;;;;;;;7.78;5.68;;;17.30;99.90;;;;;;10522402;28;20386;-84
2022/06/19 04:24:20;;;;;;;11.05;5.70;;;17.40;99.90;;;;;;10522050;28;20203;-84
2022/06/19 04:29:41;;;;;;;7.53;5.25;;;17.40;99.90;;;;;;10560217;28;20194;-84
2022/06/19 04:35:04;;;;;;;4.95;4.45;;;17.50;99.90;;;;;;10549268;28;20267;-83
2022/06/19 04:40:28;;;;;;;5.47;4.40;;;17.70;99.90;;;;;;10549379;28;20271;-84
2022/06/19 04:45:49;;;;;;;6.40;3.90;;;17.80;99.90;;;;;;10534726;28;20496;-83
2022/06/19 04:51:12;;;;;;;7.05;5.35;;;17.90;98.00;;;;;;10533629;28;20205;-84
2022/06/19 04:56:34;;;;;;;5.65;4.55;;;17.80;94.80;;;;;;10485417;28;20195;-84
2022/06/19 05:01:55;;;;;;;5.38;4.20;;;17.90;92.10;;;;;;10492351;28;20235;-84
2022/06/19 05:07:17;;;;;;;7.68;5.10;;;18.00;72.20;;;;;;10520846;28;20213;-83
2022/06/19 05:12:38;;;;;;;9.70;6.45;;;18.10;70.30;;;;;;10506181;28;20482;-84
2022/06/19 05:18:01;;;;;;;8.98;6.88;;;18.20;62.50;;;;;;10506439;28;20206;-84
2022/06/19 05:23:22;;;;;;;7.88;5.68;;;18.20;64.60;;;;;;10520893;28;20230;-83
2022/06/19 05:29:09;;;;;;;5.32;4.70;;;18.40;37.20;;;;;;10576360;27;20221;-84
2022/06/19 05:34:32;;;;;;;7.60;4.80;;;18.50;2.40;;;;;;10547804;28;20201;-83
2022/06/19 05:39:53;;;;;;;5.55;4.05;;;18.60;1.40;;;;;;10546941;28;20229;-84
2022/06/19 05:45:15;;;;;;;6.55;3.40;;;18.70;1.00;;;;;;10533001;28;20202;-83
2022/06/19 05:56:03;;;;;;;4.15;2.80;;;19.10;1.00;;;;;;10493980;28;20216;-84
2022/06/19 06:01:26;;;;;;;3.85;2.50;;;19.40;1.00;;;;;;10504486;28;20243;-84
2022/06/19 06:06:47;;;;;;;4.80;3.10;;;19.60;1.00;;;;;;10504482;28;20195;-84
2022/06/19 06:12:08;;;;;;;3.75;2.78;;;19.70;1.00;;;;;;10513341;28;20198;-85
2022/06/19 06:17:29;;;;;;;6.97;3.10;;;19.90;1.00;;;;;;10504311;28;20198;-84
2022/06/19 06:22:51;;;;;;;4.72;2.25;;;20.20;1.00;;;;;;10518312;28;20237;-84
2022/06/19 06:28:12;;;;;;;2.70;2.00;;;20.40;1.00;;;;;;10528980;28;20259;-84
2022/06/19 06:33:34;;;;;;;3.28;2.60;;;20.80;1.00;;;;;;10545806;28;20255;-85
2022/06/19 06:38:56;;;;;;;3.55;2.40;;;21.00;1.00;;;;;;10531815;28;20547;-85
2022/06/19 06:44:17;;;;;;;4.63;2.50;;;21.30;1.00;;;;;;10560562;28;20194;-84
2022/06/19 06:49:39;;;;;;;2.60;2.38;;;21.80;1.00;;;;;;10531386;28;20209;-85
2022/06/19 06:55:00;;;;;;;4.47;2.92;;;22.50;1.00;;;;;;10482234;28;20277;-85
2022/06/19 07:00:23;;;;;;;4.53;2.42;;;22.80;1.00;;;;;;10500260;28;20245;-85
2022/06/19 07:05:45;;;;;;;5.70;2.30;;;23.00;1.00;;;;;;10504990;28;20226;-85
2022/06/19 07:11:08;;;;;;;5.38;2.03;;;23.40;1.00;;;;;;10511276;28;20206;-85
2022/06/19 07:16:30;;;;;;;3.03;2.00;;;23.90;1.00;;;;;;10484019;28;20242;-84
2022/06/19 07:21:51;;;;;;;5.72;2.97;;;23.90;1.00;;;;;;10469436;28;20335;-85
2022/06/19 07:27:13;;;;;;;4.15;2.20;;;24.20;99.90;;;;;;10501938;28;20201;-85
2022/06/19 07:32:35;;;;;;;3.53;2.47;;;24.30;1.00;;;;;;10552379;28;20208;-85
2022/06/19 07:37:56;;;;;;;7.03;2.30;;;24.60;19.50;;;;;;10552237;28;20190;-85
2022/06/19 07:43:18;;;;;;;2.72;2.00;;;25.30;1.00;;;;;;10537319;28;20242;-85
2022/06/19 07:54:23;;;;;;;3.67;2.30;;;26.10;99.90;;;;;;10509096;28;20491;-85
2022/06/19 07:59:45;;;;;;;3.75;2.00;;;26.50;1.00;;;;;;10529388;28;20288;-85
2022/06/19 08:05:08;;;;;;;5.63;2.45;;;26.70;1.00;;;;;;10524203;28;20187;-85
2022/06/19 08:10:32;;;;;;;2.78;1.77;;;26.90;1.00;;;;;;10494825;28;20195;-86
2022/06/19 08:15:58;;;;;;;4.32;2.00;;;27.10;1.00;;;;;;10481466;28;20203;-85
2022/06/19 08:21:19;;;;;;;2.58;1.85;;;27.30;1.00;;;;;;10467017;28;20237;-84
2022/06/19 08:26:41;;;;;;;2.53;1.38;;;27.60;1.00;;;;;;10520075;28;20194;-85
2022/06/19 08:32:03;;;;;;;2.50;1.40;;;27.90;99.90;;;;;;10572572;28;20199;-85
2022/06/19 08:37:24;;;;;;;3.50;2.70;;;28.10;99.90;;;;;;10565935;28;20190;-85
2022/06/19 08:43:07;;;;;;;6.65;3.13;;;28.40;99.90;;;;;;10563856;28;20283;-85
2022/06/19 08:49:13;;;;;;;3.70;1.80;;;28.50;99.90;;;;;;10549210;28;20204;-85
2022/06/19 08:55:06;;;;;;;2.40;1.50;;;28.60;99.90;;;;;;10416918;28;20213;-85
2022/06/19 09:00:52;;;;;;;3.92;2.08;;;28.80;99.90;;;;;;10419203;28;20290;-85
2022/06/19 09:06:20;;;;;;;5.13;2.28;;;29.10;99.90;;;;;;10405942;28;20274;-85
2022/06/19 09:11:50;;;;;;;4.80;2.40;;;28.70;99.90;;;;;;10405596;28;20208;-85
2022/06/19 09:17:24;;;;;;;3.83;2.33;;;29.10;99.90;;;;;;10407922;28;20267;-85
2022/06/19 09:23:21;;;;;;;3.05;2.28;;;29.10;99.90;;;;;;10405488;28;20259;-84
2022/06/19 09:28:56;;;;;;;2.47;1.90;;;29.00;99.90;;;;;;10390641;28;20255;-83
2022/06/19 09:34:35;;;;;;;2.78;1.85;;;29.30;99.90;;;;;;10449470;28;20204;-85
2022/06/19 09:40:09;;;;;;;2.30;2.03;;;29.30;99.90;;;;;;10418059;28;20296;-84
2022/06/19 09:45:46;;;;;;;4.10;2.58;;;30.00;99.90;;;;;;10423011;28;20236;-85
2022/06/19 09:51:30;;;;;;;3.20;2.00;;;30.00;99.90;;;;;;10431408;28;20219;-85
2022/06/19 09:57:09;;;;;;;4.13;2.10;;;30.00;99.90;;;;;;10420465;28;20224;-85
2022/06/19 10:02:48;;;;;;;8.70;2.17;;;30.20;99.90;;;;;;10450231;28;20238;-85
2022/06/19 10:08:43;;;;;;;3.47;2.50;;;30.60;99.90;;;;;;10505226;28;20227;-85
2022/06/19 10:14:15;;;;;;;4.10;2.22;;;30.60;99.90;;;;;;10499868;28;20498;-85
2022/06/19 10:19:45;;;;;;;4.65;2.42;;;30.80;99.90;;;;;;10521514;28;20494;-85
2022/06/19 10:25:06;;;;;;;5.40;2.45;;;;;;;;;;10505851;28;20209;-84
2022/06/19 10:30:59;;;;;;;7.50;2.53;;;31.30;99.90;;;;;;10491627;28;20214;-84
2022/06/19 10:36:46;;;;;;;5.30;2.30;;;30.90;99.90;;;;;;10482681;28;20211;-85
2022/06/19 10:42:17;;;;;;;3.90;2.13;;;31.20;99.90;;;;;;10480380;28;20463;-85
2022/06/19 10:47:47;;;;;;;4.18;2.78;;;31.60;99.90;;;;;;10486207;28;20266;-86
2022/06/19 10:53:18;;;;;;;2.97;2.53;;;31.70;99.90;;;;;;10501916;28;20229;-86
2022/06/19 10:58:40;;;;;;;3.53;2.55;;;31.90;99.90;;;;;;10526180;28;20242;-85
2022/06/19 11:04:10;;;;;;;5.47;2.38;;;31.70;99.90;;;;;;10511241;28;20225;-86
2022/06/19 11:09:35;;;;;;;7.45;2.70;;;31.70;99.90;;;;;;10511020;28;20509;-85
2022/06/19 11:15:00;;;;;;;3.60;2.58;;;31.90;99.90;;;;;;10512335;28;20202;-85
2022/06/19 11:20:23;;;;;;;4.90;2.90;;;31.80;99.90;;;;;;10525070;28;20418;-85
2022/06/19 11:25:58;;;;;;;6.90;3.00;;;31.60;99.90;;;;;;10515981;28;20198;-86
2022/06/19 11:31:26;;;;;;;5.43;2.72;;;31.60;99.90;;;;;;10538021;28;20207;-86
2022/06/19 11:36:52;;;;;;;4.00;2.67;;;31.30;99.90;;;;;;10567069;28;20198;-86
2022/06/19 11:42:24;;;;;;;6.13;3.22;;;31.30;99.90;;;;;;10566302;28;20221;-85
2022/06/19 11:47:58;;;;;;;5.30;2.78;;;31.10;99.90;;;;;;10539486;28;20195;-86
2022/06/19 11:53:22;;;;;;;6.47;2.92;;;31.20;99.90;;;;;;10519041;28;20506;-86
2022/06/19 11:58:50;;;;;;;6.93;2.55;;;31.10;99.90;;;;;;10509013;28;20257;-86
2022/06/19 12:04:45;;;;;;;6.47;2.75;;;30.80;99.90;;;;;;10523300;28;20288;-86
2022/06/19 12:10:23;;;;;;;5.35;2.90;;;30.80;99.90;;;;;;10495284;28;20489;-86
2022/06/19 12:15:54;;;;;;;4.90;2.85;;;30.60;99.90;;;;;;10522793;28;20266;-86
2022/06/19 12:21:21;;;;;;;4.07;2.50;;;30.30;99.90;;;;;;10522739;28;20256;-86
2022/06/19 12:26:48;;;;;;;5.03;2.58;;;30.10;99.90;;;;;;10521705;28;20222;-86
2022/06/19 12:32:43;;;;;;;8.00;2.60;;;29.70;99.90;;;;;;10564909;28;20552;-86
2022/06/19 12:38:13;;;;;;;8.52;3.33;;;29.90;99.90;;;;;;10541032;28;20233;-86
2022/06/19 12:43:55;;;;;;;8.27;2.80;;;29.80;99.90;;;;;;10548851;28;20252;-85
2022/06/19 12:49:25;;;;;;;14.27;2.70;;;29.50;99.90;;;;;;10547895;28;20244;-85
2022/06/19 12:55:12;;;;;;;4.28;2.25;;;29.40;99.90;;;;;;10541448;28;20269;-85
2022/06/19 13:01:09;;;;;;;5.15;2.45;;;29.30;99.90;;;;;;10509788;28;20234;-86
2022/06/19 13:06:45;;;;;;;6.32;2.75;;;29.30;99.90;;;;;;10421010;28;20224;-84
2022/06/19 13:12:37;;;;;;;5.78;2.47;;;28.90;99.90;;;;;;10417710;28;20401;-85
2022/06/19 13:18:18;;;;;;;10.45;2.75;;;28.90;99.90;;;;;;10438837;28;20251;-85
2022/06/19 13:24:04;;;;;;;5.25;2.10;;;28.50;99.90;;;;;;10421368;28;20235;-85
2022/06/19 13:29:47;;;;;;;8.57;3.03;;;28.50;99.90;;;;;;10404076;28;20203;-85
2022/06/19 13:35:39;;;;;;;5.20;2.00;;;28.60;99.90;;;;;;10434604;28;20219;-86
2022/06/19 13:41:22;;;;;;;5.70;2.22;;;28.70;99.90;;;;;;10435136;28;20238;-85
2022/06/19 13:46:54;;;;;;;4.95;2.17;;;28.60;99.90;;;;;;10506371;28;20198;-85
2022/06/19 13:52:38;;;;;;;7.72;2.42;;;28.40;99.90;;;;;;10519918;28;20286;-85
2022/06/19 13:58:17;;;;;;;7.75;2.80;;;28.20;99.90;;;;;;10481653;28;20246;-85
2022/06/19 14:09:47;;;;;;;4.45;2.28;;;28.40;1.00;;;;;;10549885;28;20199;-85
2022/06/19 14:15:30;;;;;;;8.85;2.75;;;28.40;99.90;;;;;;10506627;28;20489;-84
2022/06/19 14:21:07;;;;;;;7.13;2.15;;;28.00;99.90;;;;;;10542083;28;20218;-85
2022/06/19 14:26:44;;;;;;;4.80;2.10;;;27.60;99.90;;;;;;10537973;28;20194;-85
2022/06/19 14:32:10;;;;;;;7.47;2.10;;;27.40;99.90;;;;;;10540635;28;20226;-85
2022/06/19 14:37:53;;;;;;;16.98;2.45;;;27.10;1.00;;;;;;10554597;28;20205;-85
2022/06/19 14:43:22;;;;;;;8.25;2.10;;;26.30;99.90;;;;;;10568494;28;20251;-85
2022/06/19 14:49:08;;;;;;;14.52;2.30;;;26.20;99.90;;;;;;10539753;28;20194;-85
2022/06/19 14:54:55;;;;;;;4.32;2.00;;;25.50;99.90;;;;;;10511850;28;20536;-85
2022/06/19 15:00:39;;;;;;;7.60;1.90;;;24.80;99.90;;;;;;10495920;28;20308;-85
2022/06/19 15:06:15;;;;;;;4.25;1.58;;;24.50;1.00;;;;;;10482914;28;20223;-85
2022/06/19 15:11:41;;;;;;;6.15;1.85;;;24.00;1.00;;;;;;10499894;28;20234;-85
2022/06/19 15:17:41;;;;;;;5.97;2.03;;;23.80;1.00;;;;;;10501845;28;20204;-86
2022/06/19 15:23:28;;;;;;;5.38;1.63;;;23.80;1.00;;;;;;10478375;28;20319;-86
2022/06/19 15:29:32;;;;;;;3.47;1.40;;;23.70;1.00;;;;;;10487902;28;20196;-84
2022/06/19 15:35:35;;;;;;;6.97;3.63;;;23.70;1.00;;;;;;10508559;28;20506;-85
2022/06/19 15:41:39;;;;;;;8.93;3.80;;;23.60;1.00;;;;;;10476384;28;20280;-85
2022/06/19 15:47:06;;;;;;;6.68;2.20;;;23.60;1.00;;;;;;10468639;28;20204;-84
2022/06/19 15:52:47;;;;;;;8.80;2.13;;;23.50;1.00;;;;;;10480186;28;20494;-85
2022/06/19 15:58:32;;;;;;;7.45;2.10;;;23.30;1.00;;;;;;10473199;28;20235;-84
2022/06/19 16:04:24;;;;;;;8.82;3.10;;;22.90;1.00;;;;;;10508747;28;20258;-85
2022/06/19 16:09:49;;;;;;;21.33;13.18;;;22.60;1.00;;;;;;10492284;28;20199;-85
2022/06/19 16:15:26;;;;;;;5.57;3.10;;;22.40;1.00;;;;;;10506728;28;20199;-85
2022/06/19 16:21:02;;;;;;;4.60;1.77;;;22.50;1.00;;;;;;10522852;28;20294;-85
2022/06/19 16:26:31;;;;;;;5.68;1.90;;;22.40;1.00;;;;;;10518523;28;20195;-85
2022/06/19 16:32:00;;;;;;;6.53;1.92;;;22.30;1.00;;;;;;10536177;28;20202;-84
2022/06/19 16:48:57;;;;;;;7.10;2.40;;;22.10;8.40;;;;;;10549638;28;20538;-85
2022/06/19 16:54:36;;;;;;;6.63;2.00;;;22.20;12.00;;;;;;10523682;28;20203;-85
2022/06/19 17:00:11;;;;;;;5.22;1.90;;;22.10;99.90;;;;;;10524388;28;20234;-85
2022/06/19 17:05:41;;;;;;;3.05;1.45;;;22.10;80.40;;;;;;10525554;28;20187;-85
2022/06/19 17:11:20;;;;;;;5.20;1.90;;;22.10;99.90;;;;;;10538628;28;20202;-85
2022/06/19 17:17:03;;;;;;;10.95;2.40;;;21.80;99.90;;;;;;10531507;28;20229;-83
2022/06/19 17:22:33;;;;;;;7.82;2.15;;;21.80;99.90;;;;;;10505064;28;20238;-84
2022/06/19 17:28:04;;;;;;;3.67;1.63;;;21.40;1.00;;;;;;10504883;28;20200;-85
2022/06/19 17:33:38;;;;;;;5.00;1.75;;;21.00;1.00;;;;;;10504811;28;20199;-85
2022/06/19 17:39:33;;;;;;;5.50;2.90;;;20.70;99.90;;;;;;10521268;28;20217;-85
2022/06/19 17:45:04;;;;;;;17.70;8.65;;;20.40;99.90;;;;;;10521206;28;20242;-84
2022/06/19 17:50:43;;;;;;;4.68;1.80;;;20.10;99.90;;;;;;10510260;28;20206;-85
2022/06/19 17:56:38;;;;;;;9.05;2.60;;;19.60;1.00;;;;;;10517073;28;20203;-85
2022/06/19 18:02:22;;;;;;;8.98;2.20;;;19.50;1.00;;;;;;10463363;28;20242;-84
2022/06/19 18:07:51;;;;;;;6.25;2.75;;;19.20;1.00;;;;;;10480236;28;20199;-84
2022/06/19 18:13:38;;;;;;;6.35;2.85;;;18.90;1.00;;;;;;10484170;28;20203;-84
2022/06/19 18:19:01;;;;;;;5.82;1.90;;;18.60;1.00;;;;;;10506560;28;20199;-84
2022/06/19 18:24:25;;;;;;;6.85;2.20;;;18.20;1.00;;;;;;10506263;28;20241;-84
2022/06/19 18:29:55;;;;;;;4.43;1.42;;;17.60;1.00;;;;;;10506296;28;20233;-84
2022/06/19 18:35:20;;;;;;;8.15;1.90;;;17.10;13.10;;;;;;10528645;28;20194;-84
2022/06/19 18:41:09;;;;;;;7.03;2.15;;;16.80;36.90;;;;;;10537377;28;20234;-85
2022/06/19 18:46:50;;;;;;;5.85;2.10;;;16.80;38.50;;;;;;10533974;28;20226;-84
2022/06/19 18:52:37;;;;;;;4.53;1.85;;;16.80;52.50;;;;;;10545446;28;20186;-84
2022/06/19 18:58:34;;;;;;;4.65;1.77;;;16.80;71.40;;;;;;10535482;28;20210;-85
2022/06/19 19:10:34;;;;;;;5.28;1.45;;;16.60;20.10;;;;;;10397473;22;20247;-83
2022/06/19 19:17:06;;;;;;;4.53;1.92;;;16.50;23.40;;;;;;10228168;28;20201;-84
2022/06/19 19:23:41;;;;;;;4.32;1.70;;;16.40;21.80;;;;;;10806269;23;20224;-83
2022/06/19 19:29:09;;;;;;;6.57;1.88;;;16.30;76.10;;;;;;10648886;22;20219;-84
2022/06/19 19:34:55;;;;;;;5.13;1.98;;;16.20;17.40;;;;;;10370210;28;20192;-83
2022/06/19 19:40:58;;;;;;;5.43;1.80;;;16.20;41.70;;;;;;10366456;28;20211;-85
2022/06/19 19:46:36;;;;;;;7.35;1.80;;;16.30;31.50;;;;;;10331532;28;20208;-84
2022/06/19 19:52:06;;;;;;;7.10;1.90;;;16.20;39.30;;;;;;10333355;28;20196;-85
2022/06/19 19:57:28;;;;;;;7.35;2.58;;;16.10;69.90;;;;;;10329632;28;20227;-84
2022/06/19 20:02:51;;;;;;;6.35;2.50;;;16.00;41.40;;;;;;10356401;28;20232;-85
2022/06/19 20:13:52;;;;;;;7.13;2.13;;;16.00;38.80;;;;;;10346568;28;20205;-85
2022/06/19 20:19:13;;;;;;;6.40;2.30;;;16.00;42.30;;;;;;10314773;28;20567;-84
2022/06/19 20:25:01;;;;;;;3.15;1.48;;;15.90;52.90;;;;;;10327994;28;20241;-84
2022/06/19 20:30:26;;;;;;;4.10;1.40;;;15.80;51.60;;;;;;10326259;28;20307;-84
2022/06/19 20:35:47;;;;;;;3.05;1.30;;;15.80;72.60;;;;;;10344448;28;20265;-85
2022/06/19 20:46:51;;;;;;;3.83;2.25;;;15.80;76.90;;;;;;10328049;28;20534;-84
2022/06/19 20:52:15;;;;;;;3.80;2.10;;;15.90;70.30;;;;;;10327829;28;20203;-84
2022/06/19 20:57:36;;;;;;;2.78;1.65;;;15.80;56.00;;;;;;10326842;28;20217;-84
2022/06/19 21:02:58;;;;;;;4.47;2.17;;;15.60;97.50;;;;;;10326692;28;20231;-84
2022/06/19 21:08:25;;;;;;;4.70;2.10;;;15.40;83.00;;;;;;10326959;28;20200;-84
2022/06/19 21:13:48;;;;;;;7.82;2.05;;;15.40;90.30;;;;;;10330909;28;20209;-84
2022/06/19 21:19:10;;;;;;;3.88;2.28;;;15.40;96.90;;;;;;10329642;28;20204;-84
2022/06/19 21:24:33;;;;;;;6.93;2.47;;;15.40;99.90;;;;;;10339269;28;20223;-85
2022/06/19 21:29:55;;;;;;;4.32;1.95;;;15.40;99.90;;;;;;10346645;28;20303;-84
2022/06/19 21:35:17;;;;;;;6.80;2.20;;;15.50;99.90;;;;;;10362554;28;20210;-84
2022/06/19 21:40:39;;;;;;;3.17;1.50;;;15.60;99.90;;;;;;10326069;28;20204;-84
2022/06/19 21:46:01;;;;;;;5.13;1.83;;;15.60;96.70;;;;;;10339522;28;20275;-83
2022/06/19 21:51:29;;;;;;;2.78;1.67;;;15.40;99.90;;;;;;10325116;28;20215;-84
2022/06/19 21:56:51;;;;;;;4.93;1.75;;;15.40;98.80;;;;;;10320608;28;20205;-84
2022/06/19 22:02:12;;;;;;;4.75;1.98;;;15.40;99.90;;;;;;10301324;28;20543;-84
2022/06/19 22:07:34;;;;;;;3.90;1.90;;;15.30;99.90;;;;;;10301633;28;20199;-84
2022/06/19 22:12:55;;;;;;;2.67;1.77;;;15.40;99.90;;;;;;10338377;28;20258;-84
2022/06/19 22:18:18;;;;;;;5.53;2.30;;;15.40;99.90;;;;;;10341923;28;20486;-84
2022/06/19 22:23:40;;;;;;;3.83;2.55;;;15.40;99.90;;;;;;10324733;28;20237;-84
2022/06/19 22:29:04;;;;;;;4.25;1.77;;;15.40;99.90;;;;;;10338630;28;20426;-84
2022/06/19 22:34:25;;;;;;;4.40;1.98;;;15.40;99.90;;;;;;10327663;28;20519;-83
2022/06/19 22:39:50;;;;;;;6.05;2.10;;;15.40;99.90;;;;;;10345227;28;20208;-86
2022/06/19 22:45:17;;;;;;;8.40;2.20;;;15.50;99.90;;;;;;10351139;28;20231;-84
2022/06/19 22:50:39;;;;;;;5.68;1.63;;;15.50;99.90;;;;;;10348193;28;20193;-83
2022/06/19 22:56:00;;;;;;;3.10;1.90;;;15.40;99.90;;;;;;10331495;28;20204;-84
2022/06/19 23:01:43;;;;;;;3.50;1.60;;;15.40;99.90;;;;;;10348082;28;20216;-84
2022/06/19 23:07:05;;;;;;;5.03;1.95;;;15.70;99.90;;;;;;10317715;28;20216;-84
2022/06/19 23:12:26;;;;;;;6.07;2.72;;;15.60;99.90;;;;;;10317433;28;20201;-84
2022/06/19 23:17:48;;;;;;;4.05;1.65;;;15.50;99.90;;;;;;10330432;28;20209;-84
2022/06/19 23:23:12;;;;;;;4.20;2.00;;;15.40;99.90;;;;;;10333136;28;20226;-84
2022/06/19 23:28:42;;;;;;;4.63;2.10;;;15.40;99.90;;;;;;10316586;28;20196;-84
2022/06/19 23:34:03;;;;;;;4.00;1.83;;;15.40;99.90;;;;;;10289822;28;20228;-84
2022/06/19 23:39:29;;;;;;;2.15;1.67;;;15.50;99.90;;;;;;10329576;28;20272;-84
2022/06/19 23:44:57;;;;;;;5.82;1.85;;;15.50;99.90;;;;;;10329540;28;20235;-84
2022/06/19 23:50:22;;;;;;;5.13;2.08;;;15.60;99.90;;;;;;10315552;28;20208;-84
2022/06/19 23:55:45;;;;;;;5.45;2.65;;;15.60;99.90;;;;;;10315757;28;20263;-84
